Time;durP1;ratioP1;P1;durP2;ratioP2;P2;SDS_P1;SDS_P2;PMS_P1;PMS_P2;Temp;Humidity;BMP_temperature;BMP_pressure;BME280_temperature;BME280_humidity;BME280_pressure;Samples;Min_cycle;Max_cycle;Signal;HPM_P1;HPM_P2
2022/10/30 00:00:16;;;;;;;22.48;12.73;;;;;;;16.38;64.43;101104.47;833258;23;1071;-73
2022/10/30 00:00:38;;;;;;;19.90;11.57;;;;;;;16.37;64.35;101105.34;828560;23;1267;-73
2022/10/30 00:00:59;;;;;;;17.35;10.90;;;;;;;16.43;64.43;101112.41;828011;23;1332;-73
2022/10/30 00:01:20;;;;;;;16.00;10.55;;;;;;;16.46;64.21;101115.06;825469;24;999;-72
2022/10/30 00:01:42;;;;;;;16.92;10.65;;;;;;;16.46;64.30;101111.56;826447;23;744;-72
2022/10/30 00:02:03;;;;;;;16.50;10.80;;;;;;;16.39;64.48;101103.59;824104;23;1111;-73
2022/10/30 00:02:23;;;;;;;16.75;11.00;;;;;;;16.42;64.28;101111.53;829389;23;752;-73
2022/10/30 00:02:56;;;;;;;17.23;10.83;;;;;;;16.45;64.37;101115.94;831985;23;1110;-73
2022/10/30 00:03:17;;;;;;;17.08;11.00;;;;;;;16.40;64.41;101108.00;828043;23;1015;-73
2022/10/30 00:03:38;;;;;;;16.67;11.10;;;;;;;16.45;64.50;101110.66;831990;23;854;-72
2022/10/30 00:03:59;;;;;;;15.98;11.38;;;;;;;16.48;64.45;101112.47;828045;23;1285;-73
2022/10/30 00:04:20;;;;;;;16.08;10.77;;;;;;;16.45;64.53;101110.66;824133;23;1083;-72
2022/10/30 00:04:41;;;;;;;16.73;11.35;;;;;;;16.46;64.57;101111.56;828136;23;796;-72
2022/10/30 00:05:01;;;;;;;16.63;11.30;;;;;;;16.44;64.59;101099.28;829311;23;982;-73
2022/10/30 00:05:22;;;;;;;18.20;12.20;;;;;;;16.50;64.57;101113.34;824262;24;1456;-72
2022/10/30 00:05:46;;;;;;;17.13;11.77;;;;;;;16.50;64.69;101108.06;824113;23;831;-72
2022/10/30 00:06:07;;;;;;;18.60;11.30;;;;;;;16.51;64.66;101121.28;825388;24;1133;-73
2022/10/30 00:06:28;;;;;;;17.02;10.70;;;;;;;16.47;64.50;101106.28;824070;24;830;-73
2022/10/30 00:06:48;;;;;;;16.42;10.75;;;;;;;16.48;64.57;101104.56;825429;24;775;-73
2022/10/30 00:07:16;;;;;;;15.65;11.60;;;;;;;16.49;64.61;101107.22;830329;23;968;-73
2022/10/30 00:07:36;;;;;;;17.87;11.20;;;;;;;16.46;64.52;101099.25;838427;23;767;-73
2022/10/30 00:07:58;;;;;;;17.17;11.25;;;;;;;16.55;64.56;101116.91;840868;23;1088;-73
2022/10/30 00:08:20;;;;;;;18.02;11.00;;;;;;;16.55;64.62;101114.28;835323;23;1251;-72
2022/10/30 00:08:53;;;;;;;15.10;11.13;;;;;;;16.54;64.39;101115.16;831797;23;1128;-72
2022/10/30 00:09:14;;;;;;;15.23;10.68;;;;;;;16.50;64.50;101110.72;831578;23;1400;-73
2022/10/30 00:09:34;;;;;;;14.68;10.27;;;;;;;16.52;64.33;101116.88;832728;23;826;-73
2022/10/30 00:09:55;;;;;;;15.98;10.20;;;;;;;16.53;64.39;101118.66;827669;23;1903;-73
2022/10/30 00:10:17;;;;;;;15.23;10.13;;;;;;;16.50;64.59;101105.44;829468;23;968;-72
2022/10/30 00:10:38;;;;;;;16.77;10.18;;;;;;;16.49;64.35;101103.69;832554;23;780;-72
2022/10/30 00:11:10;;;;;;;16.60;10.00;;;;;;;16.52;64.31;101112.50;833174;23;981;-73
2022/10/30 00:11:42;;;;;;;15.68;11.00;;;;;;;16.53;64.36;101110.75;833342;23;795;-74
2022/10/30 00:12:03;;;;;;;16.42;12.20;;;;;;;16.56;64.47;101118.69;838289;23;1012;-72
2022/10/30 00:12:24;;;;;;;17.77;12.07;;;;;;;16.54;64.43;101101.97;834927;23;902;-73
2022/10/30 00:12:45;;;;;;;17.70;11.77;;;;;;;16.54;64.35;101109.88;831938;23;823;-72
2022/10/30 00:13:07;;;;;;;16.23;11.07;;;;;;;16.60;64.35;101120.47;823935;24;1414;-72
2022/10/30 00:13:28;;;;;;;13.38;10.63;;;;;;;16.56;64.21;101108.13;825541;23;1037;-72
2022/10/30 00:13:48;;;;;;;15.55;10.73;;;;;;;16.55;64.50;101111.66;825614;24;786;-73
2022/10/30 00:14:09;;;;;;;15.73;10.35;;;;;;;16.55;64.29;101101.09;826040;23;999;-72
2022/10/30 00:14:30;;;;;;;15.47;10.17;;;;;;;16.55;64.17;101106.38;830142;23;748;-72
2022/10/30 00:14:50;;;;;;;13.98;10.27;;;;;;;16.56;64.29;101108.13;833116;23;839;-73
2022/10/30 00:15:11;;;;;;;14.02;10.57;;;;;;;16.57;64.24;101104.63;841068;23;1011;-73
2022/10/30 00:15:33;;;;;;;14.82;10.55;;;;;;;16.61;64.08;101114.34;835260;23;1527;-72
2022/10/30 00:15:55;;;;;;;14.82;10.65;;;;;;;16.55;64.22;101107.25;831806;23;1328;-73
2022/10/30 00:16:16;;;;;;;15.20;10.93;;;;;;;16.56;64.13;101109.03;827938;23;1161;-73
2022/10/30 00:16:36;;;;;;;16.60;11.60;;;;;;;16.58;64.10;101107.28;828112;23;1130;-72
2022/10/30 00:16:57;;;;;;;17.20;11.35;;;;;;;16.56;64.13;101108.13;823933;24;1190;-73
2022/10/30 00:17:17;;;;;;;16.53;11.17;;;;;;;16.58;64.06;101115.19;827983;23;1129;-73
2022/10/30 00:17:38;;;;;;;16.63;11.02;;;;;;;16.56;64.12;101102.88;824077;23;1185;-73
2022/10/30 00:17:59;;;;;;;15.75;11.30;;;;;;;16.60;64.12;101103.78;823651;24;1704;-72
2022/10/30 00:18:20;;;;;;;16.77;11.65;;;;;;;16.60;64.17;101109.94;820248;24;1189;-72
2022/10/30 00:18:42;;;;;;;15.27;11.65;;;;;;;16.57;64.31;101100.25;820202;24;1125;-72
2022/10/30 00:19:03;;;;;;;14.82;11.40;;;;;;;16.64;64.16;101116.09;823904;24;1144;-73
2022/10/30 00:19:24;;;;;;;16.83;11.10;;;;;;;16.54;63.96;101092.31;826647;23;764;-73
2022/10/30 00:19:45;;;;;;;15.50;10.60;;;;;;;16.53;63.96;101093.19;823405;23;871;-72
2022/10/30 00:20:06;;;;;;;15.50;10.23;;;;;;;16.58;64.02;101098.47;827440;23;1018;-73
2022/10/30 00:20:27;;;;;;;15.40;10.20;;;;;;;16.64;63.90;101109.09;826443;23;772;-72
2022/10/30 00:20:48;;;;;;;18.15;10.70;;;;;;;16.60;64.10;101103.78;829387;23;897;-73
2022/10/30 00:21:11;;;;;;;19.45;11.20;;;;;;;16.60;64.12;101104.69;831749;23;1287;-73
2022/10/30 00:21:31;;;;;;;18.13;11.80;;;;;;;16.60;63.93;101109.03;833301;23;857;-72
2022/10/30 00:21:52;;;;;;;17.93;11.63;;;;;;;16.61;63.98;101111.72;829394;23;790;-73
2022/10/30 00:22:13;;;;;;;16.95;11.52;;;;;;;16.58;63.98;101103.75;827903;23;1415;-72
2022/10/30 00:22:34;;;;;;;19.52;11.27;;;;;;;16.65;63.94;101118.75;825642;24;753;-73
2022/10/30 00:22:55;;;;;;;18.98;11.35;;;;;;;16.62;63.85;101110.84;825280;24;1241;-73
2022/10/30 00:23:16;;;;;;;18.50;11.40;;;;;;;16.60;63.91;101109.94;826728;23;1043;-73
2022/10/30 00:23:36;;;;;;;16.55;11.45;;;;;;;16.63;63.99;101115.22;833514;23;775;-72
2022/10/30 00:23:57;;;;;;;16.23;11.50;;;;;;;16.61;63.72;101105.53;833861;23;984;-72
2022/10/30 00:24:31;;;;;;;16.80;11.40;;;;;;;16.65;63.75;101116.13;837291;23;719;-73
2022/10/30 00:24:53;;;;;;;15.05;10.85;;;;;;;16.65;63.78;101118.75;835771;23;1250;-72
2022/10/30 00:25:14;;;;;;;14.55;10.68;;;;;;;16.61;63.63;101106.44;828339;23;1394;-73
2022/10/30 00:25:35;;;;;;;17.13;11.07;;;;;;;16.60;63.64;101106.41;829417;23;823;-73
2022/10/30 00:25:55;;;;;;;20.15;11.52;;;;;;;16.65;63.71;101113.47;827904;23;1565;-73
2022/10/30 00:26:18;;;;;;;21.85;11.80;;;;;;;16.67;63.74;101113.50;824013;24;1254;-73
2022/10/30 00:26:38;;;;;;;20.10;11.52;;;;;;;16.66;63.68;101114.38;825661;23;851;-73
2022/10/30 00:26:59;;;;;;;20.50;11.35;;;;;;;16.67;63.71;101105.59;829132;23;860;-73
2022/10/30 00:27:20;;;;;;;18.73;11.20;;;;;;;16.59;63.80;101102.88;829366;23;1094;-73
2022/10/30 00:27:41;;;;;;;18.50;11.10;;;;;;;16.65;63.93;101107.34;832034;23;1571;-72
2022/10/30 00:28:04;;;;;;;16.58;11.10;;;;;;;16.65;63.68;101109.97;823969;24;1231;-73
2022/10/30 00:28:25;;;;;;;15.80;11.32;;;;;;;16.65;63.85;101108.22;825440;24;783;-73
2022/10/30 00:28:50;;;;;;;15.57;11.48;;;;;;;16.65;63.59;101108.22;825580;24;827;-73
2022/10/30 00:29:11;;;;;;;14.55;11.13;;;;;;;16.65;63.75;101108.22;825271;24;1031;-72
2022/10/30 00:29:47;;;;;;;12.90;10.48;;;;;;;16.67;63.74;101113.50;829252;23;765;-73
2022/10/30 00:30:08;;;;;;;14.68;10.63;;;;;;;16.67;63.66;101117.00;833362;23;1037;-73
2022/10/30 00:30:30;;;;;;;16.13;11.15;;;;;;;16.65;63.61;101108.22;829195;23;799;-73
2022/10/30 00:30:51;;;;;;;17.80;11.38;;;;;;;16.73;63.57;101121.47;829336;23;810;-73
2022/10/30 00:31:11;;;;;;;16.70;11.35;;;;;;;16.69;63.73;101124.94;827944;23;1149;-72
2022/10/30 00:31:32;;;;;;;17.20;11.50;;;;;;;16.65;63.54;101109.97;824165;23;1128;-72
2022/10/30 00:31:52;;;;;;;17.13;11.80;;;;;;;16.65;63.55;101112.63;825460;23;792;-73
2022/10/30 00:32:13;;;;;;;18.45;11.88;;;;;;;16.66;63.53;101103.84;825248;24;1051;-73
2022/10/30 00:32:34;;;;;;;16.67;11.60;;;;;;;16.71;63.53;101124.06;825617;23;768;-73
2022/10/30 00:32:54;;;;;;;17.00;11.10;;;;;;;16.66;63.45;101119.66;828400;23;831;-73
2022/10/30 00:33:15;;;;;;;16.95;10.82;;;;;;;16.66;63.64;101117.00;828390;23;1077;-72
2022/10/30 00:33:37;;;;;;;17.05;11.02;;;;;;;16.67;63.51;101111.72;831294;23;1313;-72
2022/10/30 00:33:59;;;;;;;19.15;11.65;;;;;;;16.63;63.50;101109.97;831867;23;1320;-73
2022/10/30 00:34:20;;;;;;;20.33;11.75;;;;;;;16.70;63.60;101119.69;831824;23;1323;-72
2022/10/30 00:34:41;;;;;;;20.10;11.30;;;;;;;16.63;63.57;101109.06;828164;23;776;-73
2022/10/30 00:35:02;;;;;;;19.48;10.55;;;;;;;16.63;63.41;101115.22;824106;23;1162;-73
2022/10/30 00:35:22;;;;;;;17.75;10.63;;;;;;;16.67;63.52;101119.63;825463;24;754;-73
2022/10/30 00:35:49;;;;;;;17.70;11.38;;;;;;;16.64;63.53;101111.72;835876;23;1122;-73
2022/10/30 00:36:09;;;;;;;17.55;11.60;;;;;;;16.65;63.51;101113.47;833134;23;1078;-72
2022/10/30 00:36:30;;;;;;;19.42;12.15;;;;;;;16.63;63.46;101112.59;832047;23;1297;-72
2022/10/30 00:36:52;;;;;;;19.13;11.93;;;;;;;16.63;63.51;101111.69;831745;23;1153;-73
2022/10/30 00:37:13;;;;;;;18.70;11.70;;;;;;;16.61;63.46;101111.72;823960;23;1098;-73
2022/10/30 00:37:34;;;;;;;15.20;10.90;;;;;;;16.66;63.26;101120.50;825568;24;771;-73
2022/10/30 00:37:55;;;;;;;15.15;11.02;;;;;;;16.60;63.43;101107.31;824014;24;1124;-73
2022/10/30 00:38:15;;;;;;;14.27;11.23;;;;;;;16.62;63.49;101113.47;820121;24;1310;-72
2022/10/30 00:38:36;;;;;;;12.90;10.63;;;;;;;16.63;63.43;101109.06;824279;24;800;-73
2022/10/30 00:38:56;;;;;;;13.57;10.30;;;;;;;16.63;63.38;101114.31;825471;24;1010;-73
2022/10/30 00:39:17;;;;;;;15.70;10.70;;;;;;;16.58;63.38;101106.38;824075;24;1109;-72
2022/10/30 00:39:39;;;;;;;16.77;10.75;;;;;;;16.62;63.35;101109.94;827321;23;1613;-73
2022/10/30 00:40:03;;;;;;;15.30;10.52;;;;;;;16.61;63.37;101114.34;827500;23;1194;-72
2022/10/30 00:40:25;;;;;;;16.50;10.13;;;;;;;16.57;63.29;101102.00;825431;23;795;-73
2022/10/30 00:40:46;;;;;;;16.83;10.60;;;;;;;16.61;63.25;101116.06;820357;24;796;-72
2022/10/30 00:41:10;;;;;;;18.83;10.60;;;;;;;16.62;63.38;101113.47;823865;24;1194;-73
2022/10/30 00:41:31;;;;;;;17.40;10.60;;;;;;;16.66;63.26;101117.88;829500;23;1264;-73
2022/10/30 00:41:52;;;;;;;16.70;10.53;;;;;;;16.64;63.38;101117.00;833297;23;907;-73
2022/10/30 00:42:14;;;;;;;16.42;11.30;;;;;;;16.67;63.32;101127.53;833086;23;1097;-73
2022/10/30 00:42:36;;;;;;;19.02;11.10;;;;;;;16.65;63.26;101124.00;829678;23;1450;-73
2022/10/30 00:42:58;;;;;;;21.55;11.50;;;;;;;16.64;63.32;101119.63;830004;23;1281;-73
2022/10/30 00:43:29;;;;;;;23.58;11.30;;;;;;;16.62;63.23;101116.09;824018;23;1272;-72
2022/10/30 00:43:51;;;;;;;22.67;11.20;;;;;;;16.70;63.19;101131.97;824148;24;902;-73
2022/10/30 00:44:31;;;;;;;18.20;11.30;;;;;;;16.71;63.26;101124.06;820090;24;1008;-73
2022/10/30 00:44:52;;;;;;;14.60;10.88;;;;;;;16.71;63.04;101123.19;824068;24;833;-72
2022/10/30 00:45:15;;;;;;;14.57;10.37;;;;;;;16.65;63.45;101116.13;820010;24;1178;-73
2022/10/30 00:45:36;;;;;;;15.07;10.73;;;;;;;16.65;63.14;101113.47;823249;24;890;-71
2022/10/30 00:46:00;;;;;;;14.85;11.43;;;;;;;16.66;63.23;101117.88;827458;23;1189;-73
2022/10/30 00:46:36;;;;;;;17.58;12.15;;;;;;;16.71;63.48;101129.34;820231;24;1116;-72
2022/10/30 00:47:03;;;;;;;18.17;11.30;;;;;;;16.68;63.34;101124.06;820726;24;1158;-73
2022/10/30 00:47:34;;;;;;;17.42;10.50;;;;;;;16.68;63.47;101121.44;825510;24;803;-72
2022/10/30 00:48:00;;;;;;;22.13;11.30;;;;;;;16.70;63.47;101119.69;823674;24;1039;-73
2022/10/30 00:48:25;;;;;;;21.55;11.50;;;;;;;16.72;63.64;101124.97;832710;23;1074;-72
2022/10/30 00:48:57;;;;;;;17.45;11.23;;;;;;;16.69;63.50;101120.56;832009;23;1933;-73
2022/10/30 00:49:18;;;;;;;16.77;11.25;;;;;;;16.71;63.42;101118.81;830534;23;1025;-73
2022/10/30 00:49:50;;;;;;;16.38;11.10;;;;;;;16.69;63.54;101120.56;832225;23;744;-73
2022/10/30 00:50:30;;;;;;;18.25;12.07;;;;;;;16.68;63.61;101123.16;827364;23;2070;-73
2022/10/30 00:50:52;;;;;;;19.10;12.10;;;;;;;16.64;63.49;101114.34;831899;23;861;-73
2022/10/30 00:51:13;;;;;;;17.83;11.60;;;;;;;16.67;63.47;101116.13;833079;23;1026;-73
2022/10/30 00:51:38;;;;;;;19.38;11.73;;;;;;;16.64;63.47;101117.00;835932;23;1339;-72
2022/10/30 00:52:02;;;;;;;21.40;11.05;;;;;;;16.68;63.46;101123.16;833176;23;1093;-73
2022/10/30 00:52:27;;;;;;;20.85;10.70;;;;;;;16.67;63.42;101117.00;827827;23;851;-73
2022/10/30 00:52:59;;;;;;;19.50;10.80;;;;;;;16.70;63.40;101121.41;829361;23;827;-73
2022/10/30 00:53:21;;;;;;;20.67;11.15;;;;;;;16.70;63.56;101124.06;825418;24;956;-73
2022/10/30 00:53:42;;;;;;;20.05;11.10;;;;;;;16.67;63.32;101122.28;827969;23;1216;-73
2022/10/30 00:54:05;;;;;;;18.55;10.95;;;;;;;16.68;63.35;101124.06;831755;23;1205;-73
2022/10/30 00:54:26;;;;;;;16.17;10.80;;;;;;;16.67;63.27;101127.53;827768;23;1441;-73
2022/10/30 00:54:47;;;;;;;17.15;11.35;;;;;;;16.65;63.26;101123.16;828143;23;1372;-73
2022/10/30 00:55:12;;;;;;;18.55;11.70;;;;;;;16.67;63.34;101122.28;820151;24;1204;-73
2022/10/30 00:56:02;;;;;;;18.30;11.48;;;;;;;16.69;63.25;101131.09;824026;24;1328;-73
2022/10/30 00:56:23;;;;;;;13.73;10.10;;;;;;;16.66;63.23;101125.78;826759;23;1128;-73
2022/10/30 00:56:46;;;;;;;15.35;10.18;;;;;;;16.68;63.31;101124.06;823361;23;875;-73
2022/10/30 00:57:08;;;;;;;14.80;10.43;;;;;;;16.65;63.21;101121.38;832262;23;1029;-74
2022/10/30 00:57:30;;;;;;;15.95;10.70;;;;;;;16.62;63.23;101112.56;828829;23;893;-73
2022/10/30 00:57:52;;;;;;;14.63;11.00;;;;;;;16.66;63.33;101119.66;828040;23;1437;-73
2022/10/30 00:58:16;;;;;;;14.98;11.55;;;;;;;16.69;63.39;101130.19;827570;23;1174;-73
2022/10/30 00:58:47;;;;;;;15.95;11.88;;;;;;;16.67;63.29;101132.81;824038;24;1049;-73
2022/10/30 00:59:11;;;;;;;19.42;11.90;;;;;;;16.60;63.43;101117.84;825064;23;1070;-73
2022/10/30 00:59:34;;;;;;;20.52;12.57;;;;;;;16.65;63.49;101129.28;825292;23;888;-73
2022/10/30 00:59:55;;;;;;;20.58;12.65;;;;;;;16.64;63.48;101127.53;823831;24;1813;-73
2022/10/30 01:00:19;;;;;;;17.92;12.00;;;;;;;16.65;63.48;101125.78;829226;23;934;-73
2022/10/30 01:00:44;;;;;;;18.00;11.30;;;;;;;16.61;63.45;101122.25;829254;23;858;-73
2022/10/30 01:01:11;;;;;;;18.25;11.38;;;;;;;16.64;63.36;101127.53;823966;24;1140;-73
2022/10/30 01:01:36;;;;;;;18.52;11.32;;;;;;;16.63;63.50;101123.13;824264;24;854;-73
2022/10/30 01:01:59;;;;;;;17.55;11.63;;;;;;;16.60;63.45;101122.22;825272;24;971;-73
2022/10/30 01:02:21;;;;;;;16.70;11.73;;;;;;;16.56;63.57;101119.56;829322;23;1129;-73
2022/10/30 01:02:43;;;;;;;16.15;11.25;;;;;;;16.58;63.38;101123.09;833322;23;822;-73
2022/10/30 01:03:04;;;;;;;16.58;11.32;;;;;;;16.58;63.51;101122.19;837149;23;1081;-73
2022/10/30 01:03:28;;;;;;;15.88;11.35;;;;;;;16.59;63.51;101121.31;820273;24;1402;-73
2022/10/30 01:03:54;;;;;;;18.25;11.23;;;;;;;16.56;63.51;101124.84;829632;23;878;-75
2022/10/30 01:04:15;;;;;;;19.43;11.03;;;;;;;16.57;63.52;101130.97;829288;23;956;-73
2022/10/30 01:04:38;;;;;;;19.75;11.30;;;;;;;16.56;63.31;101131.84;827897;23;1297;-73
2022/10/30 01:04:59;;;;;;;18.20;11.20;;;;;;;16.51;63.53;101126.53;820123;23;1185;-73
2022/10/30 01:05:24;;;;;;;17.55;10.85;;;;;;;16.54;63.50;101139.72;825466;23;1193;-73
2022/10/30 01:05:48;;;;;;;18.85;11.07;;;;;;;16.51;63.38;101131.81;825613;24;823;-73
2022/10/30 01:06:13;;;;;;;17.98;11.10;;;;;;;16.49;63.31;101127.38;825296;23;1110;-73
2022/10/30 01:06:38;;;;;;;18.55;11.52;;;;;;;16.48;63.43;101120.34;827513;23;1364;-73
2022/10/30 01:07:06;;;;;;;17.52;11.23;;;;;;;16.53;63.48;101139.72;827807;23;1914;-73
2022/10/30 01:07:26;;;;;;;15.68;10.70;;;;;;;16.42;63.45;101116.78;825546;23;823;-73
2022/10/30 01:07:47;;;;;;;16.37;10.63;;;;;;;16.47;63.71;101123.88;828008;23;800;-73
2022/10/30 01:08:08;;;;;;;17.23;11.50;;;;;;;16.47;63.52;101123.88;828974;23;1050;-73
2022/10/30 01:08:29;;;;;;;17.57;11.03;;;;;;;16.49;63.65;101137.94;832003;23;1234;-73
2022/10/30 01:08:52;;;;;;;16.33;10.70;;;;;;;16.46;63.81;101135.28;833256;23;807;-73
2022/10/30 01:09:14;;;;;;;15.85;10.38;;;;;;;16.43;63.64;101130.84;828981;23;1464;-73
2022/10/30 01:09:37;;;;;;;17.73;11.07;;;;;;;16.39;63.64;101131.69;826367;23;1477;-73
2022/10/30 01:09:59;;;;;;;20.15;11.80;;;;;;;16.41;63.75;101129.97;831339;23;1940;-73
2022/10/30 01:10:21;;;;;;;20.02;11.68;;;;;;;16.42;63.50;101131.72;829143;23;1097;-73
2022/10/30 01:10:42;;;;;;;18.75;11.70;;;;;;;16.41;63.62;101130.84;833294;23;832;-73
2022/10/30 01:11:04;;;;;;;15.98;11.10;;;;;;;16.39;63.51;101129.03;823699;23;1429;-73
2022/10/30 01:11:25;;;;;;;14.45;11.40;;;;;;;16.40;63.55;101128.16;825404;23;899;-73
2022/10/30 01:11:58;;;;;;;17.45;11.38;;;;;;;16.33;63.64;101124.59;824133;24;1314;-73
2022/10/30 01:12:19;;;;;;;19.98;11.00;;;;;;;16.33;63.51;101121.13;825645;24;964;-73
2022/10/30 01:12:42;;;;;;;16.85;10.65;;;;;;;16.37;63.58;101136.06;824043;23;1261;-73
2022/10/30 01:13:04;;;;;;;17.58;10.70;;;;;;;16.29;63.53;101121.06;823668;23;1257;-73
2022/10/30 01:13:25;;;;;;;16.80;10.90;;;;;;;16.29;63.64;101125.47;829264;23;772;-72
2022/10/30 01:13:50;;;;;;;16.65;10.95;;;;;;;16.28;63.72;101124.56;827925;23;1134;-73
2022/10/30 01:14:15;;;;;;;15.95;10.73;;;;;;;16.32;63.68;101133.38;827680;23;1030;-73
2022/10/30 01:14:40;;;;;;;14.18;10.30;;;;;;;16.31;63.78;101129.00;825315;23;784;-73
2022/10/30 01:15:01;;;;;;;14.43;10.30;;;;;;;16.28;63.85;101123.66;825248;23;963;-74
2022/10/30 01:15:29;;;;;;;14.77;10.70;;;;;;;16.31;63.81;101129.84;820155;24;1274;-73
2022/10/30 01:15:56;;;;;;;14.02;10.60;;;;;;;16.30;63.85;101132.50;828043;23;1231;-73
2022/10/30 01:16:29;;;;;;;13.73;10.40;;;;;;;16.30;63.96;101132.50;827546;23;1452;-73
2022/10/30 01:16:58;;;;;;;15.02;10.60;;;;;;;16.30;63.78;101121.97;828012;23;1903;-73
2022/10/30 01:17:43;;;;;;;17.75;10.98;;;;;;;16.21;63.95;101113.94;833081;23;1085;-73
2022/10/30 01:18:16;;;;;;;20.42;11.30;;;;;;;16.27;63.97;101125.44;836947;23;1071;-73
2022/10/30 01:18:57;;;;;;;16.77;10.23;;;;;;;16.22;63.93;101119.19;837299;23;1063;-73
2022/10/30 01:19:38;;;;;;;13.82;10.32;;;;;;;16.27;63.79;101124.53;840056;23;1042;-73
2022/10/30 01:20:05;;;;;;;13.75;10.88;;;;;;;16.27;63.95;101122.81;836887;23;1116;-73
2022/10/30 01:20:40;;;;;;;15.60;10.50;;;;;;;16.21;64.00;101116.56;837172;23;894;-72
2022/10/30 01:21:03;;;;;;;16.83;11.10;;;;;;;16.25;63.85;101121.91;833270;23;1032;-74
2022/10/30 01:21:36;;;;;;;16.58;11.40;;;;;;;16.25;63.85;101124.56;827948;23;2153;-73
2022/10/30 01:22:14;;;;;;;15.88;10.50;;;;;;;16.21;64.03;101113.94;827855;23;1947;-73
2022/10/30 01:22:53;;;;;;;23.70;11.15;;;;;;;16.25;64.13;101123.66;827767;23;936;-73
2022/10/30 01:23:25;;;;;;;23.52;11.77;;;;;;;16.25;64.19;101115.75;830490;23;1038;-73
2022/10/30 01:23:54;;;;;;;16.92;11.43;;;;;;;16.23;64.14;101120.09;826856;23;799;-73
2022/10/30 01:24:37;;;;;;;15.90;10.85;;;;;;;16.19;64.14;101111.28;829157;23;1066;-73
2022/10/30 01:25:37;;;;;;;16.50;10.65;;;;;;;16.15;64.05;101115.63;827678;23;1194;-73
2022/10/30 01:26:11;;;;;;;15.70;10.50;;;;;;;16.18;64.09;101123.56;827270;23;1042;-73
2022/10/30 01:26:42;;;;;;;14.52;10.35;;;;;;;16.12;64.18;101106.81;825431;23;879;-73
2022/10/30 01:27:34;;;;;;;14.32;10.45;;;;;;;16.08;64.17;101103.28;827379;23;1029;-73
2022/10/30 01:28:46;;;;;;;15.40;10.50;;;;;;;16.15;64.17;101125.25;823974;24;1447;-73
2022/10/30 01:29:13;;;;;;;20.48;10.55;;;;;;;16.10;64.29;101106.78;821314;24;1472;-73
2022/10/30 01:30:04;;;;;;;17.83;10.68;;;;;;;16.12;64.02;101112.09;819771;24;1324;-73
2022/10/30 01:30:51;;;;;;;17.58;10.70;;;;;;;16.09;64.17;101114.69;823758;24;1504;-73
2022/10/30 01:31:50;;;;;;;15.00;11.00;;;;;;;16.11;64.27;101121.72;824021;23;1456;-73
2022/10/30 01:32:39;;;;;;;16.10;10.60;;;;;;;16.04;64.17;101109.34;826052;23;1031;-73
2022/10/30 01:33:34;;;;;;;16.63;10.15;;;;;;;16.12;64.36;101112.09;824286;23;1113;-73
2022/10/30 01:34:24;;;;;;;18.67;10.43;;;;;;;16.11;64.45;101115.59;824368;23;1197;-73
2022/10/30 01:35:15;;;;;;;16.50;10.88;;;;;;;16.05;64.12;101105.88;828518;23;822;-73
2022/10/30 01:35:51;;;;;;;16.45;10.90;;;;;;;16.06;64.51;101117.28;831938;23;874;-73
2022/10/30 01:36:36;;;;;;;16.42;10.80;;;;;;;16.02;64.48;101108.47;827777;23;1999;-73
2022/10/30 01:37:05;;;;;;;22.70;10.20;;;;;;;16.03;64.50;101110.22;823981;24;1308;-73
2022/10/30 01:37:31;;;;;;;19.23;10.77;;;;;;;16.08;64.44;101120.81;824086;24;913;-73
2022/10/30 01:38:20;;;;;;;18.08;11.10;;;;;;;16.06;64.37;101123.44;825525;24;779;-73
2022/10/30 01:38:50;;;;;;;14.88;10.23;;;;;;;16.01;64.44;101115.50;830442;23;829;-73
2022/10/30 01:39:15;;;;;;;18.52;10.52;;;;;;;15.97;64.38;101110.19;833523;23;991;-73
2022/10/30 01:39:39;;;;;;;20.05;11.10;;;;;;;15.99;64.25;101116.34;831357;23;1289;-73
2022/10/30 01:40:07;;;;;;;21.55;10.80;;;;;;;15.95;64.36;101109.25;831439;23;1194;-74
2022/10/30 01:40:28;;;;;;;18.00;10.70;;;;;;;15.97;64.27;101112.81;835593;23;1008;-73
2022/10/30 01:40:49;;;;;;;16.67;10.25;;;;;;;15.90;64.29;101107.47;832781;23;810;-73
2022/10/30 01:41:24;;;;;;;16.80;10.32;;;;;;;15.87;64.42;101111.81;829087;23;892;-73
2022/10/30 01:41:45;;;;;;;17.65;10.65;;;;;;;15.85;64.38;101109.16;825586;24;795;-73
2022/10/30 01:42:43;;;;;;;17.60;10.63;;;;;;;15.92;64.35;101119.75;825484;24;1121;-73
2022/10/30 01:43:04;;;;;;;17.23;10.90;;;;;;;15.85;64.48;101118.81;835700;23;1040;-73
2022/10/30 01:43:27;;;;;;;17.88;10.88;;;;;;;15.84;64.48;101112.66;833347;23;810;-73
2022/10/30 01:43:54;;;;;;;19.17;10.38;;;;;;;15.85;64.53;101114.41;833589;23;771;-73
2022/10/30 01:44:22;;;;;;;18.17;10.20;;;;;;;15.84;64.45;101112.66;829307;23;1018;-73
2022/10/30 01:44:42;;;;;;;15.75;10.30;;;;;;;15.85;64.52;101111.78;820154;24;1000;-73
2022/10/30 01:45:32;;;;;;;14.77;10.57;;;;;;;15.88;64.68;101122.34;829274;23;1096;-73
2022/10/30 01:46:30;;;;;;;18.00;10.10;;;;;;;15.85;64.52;101122.31;827922;23;883;-73
2022/10/30 01:46:57;;;;;;;18.50;10.68;;;;;;;15.85;64.63;101119.69;828345;23;1153;-73
2022/10/30 01:47:33;;;;;;;19.58;11.05;;;;;;;15.78;64.53;101117.84;832005;23;1033;-73
2022/10/30 01:48:34;;;;;;;20.02;10.98;;;;;;;15.78;64.71;101117.84;835709;23;885;-73
2022/10/30 01:49:29;;;;;;;16.35;10.25;;;;;;;15.84;64.66;101132.81;832374;23;1129;-73
2022/10/30 01:50:17;;;;;;;17.45;10.45;;;;;;;15.82;64.67;101124.94;831676;23;1937;-73
2022/10/30 01:51:02;;;;;;;16.48;11.07;;;;;;;15.74;64.62;101119.56;833754;23;985;-73
2022/10/30 01:51:50;;;;;;;15.60;10.32;;;;;;;15.78;64.79;101131.00;833498;23;799;-73
2022/10/30 01:52:40;;;;;;;17.63;10.40;;;;;;;15.80;64.87;101136.28;833351;23;1083;-73
2022/10/30 01:53:26;;;;;;;18.85;10.80;;;;;;;15.77;64.87;101134.50;828084;23;1205;-73
2022/10/30 01:54:11;;;;;;;17.85;10.65;;;;;;;15.76;65.06;101130.09;833588;23;712;-73
2022/10/30 01:55:15;;;;;;;14.45;10.30;;;;;;;15.76;65.04;101130.09;831863;23;1279;-73
2022/10/30 01:55:46;;;;;;;13.93;9.70;;;;;;;15.71;65.20;101123.91;828085;23;2032;-73
2022/10/30 01:56:14;;;;;;;11.35;9.45;;;;;;;15.72;65.17;101134.44;824126;24;2074;-73
2022/10/30 01:56:58;;;;;;;13.02;9.82;;;;;;;15.69;65.12;101128.25;825598;24;810;-73
2022/10/30 01:57:37;;;;;;;18.02;10.95;;;;;;;15.67;65.19;101124.75;825603;23;975;-73
2022/10/30 01:58:42;;;;;;;14.35;10.50;;;;;;;15.71;65.07;101130.06;824903;23;1113;-73
2022/10/30 01:59:08;;;;;;;17.63;11.45;;;;;;;15.72;64.99;101123.03;820441;23;1513;-73
2022/10/30 02:00:09;;;;;;;17.17;10.90;;;;;;;15.79;64.84;101131.91;831570;23;1279;-72
2022/10/30 02:00:43;;;;;;;16.70;10.20;;;;;;;15.74;64.85;101123.94;820326;24;1549;-73
2022/10/30 02:01:07;;;;;;;18.20;10.55;;;;;;;15.74;64.91;101121.31;823844;23;1038;-72
2022/10/30 02:01:32;;;;;;;17.98;10.85;;;;;;;15.80;64.77;101126.63;824186;24;918;-72
2022/10/30 02:01:52;;;;;;;16.45;11.20;;;;;;;15.73;64.90;101115.16;829309;23;862;-72
2022/10/30 02:02:13;;;;;;;16.90;11.07;;;;;;;15.74;64.82;101121.31;829283;23;1173;-73
2022/10/30 02:02:34;;;;;;;15.20;10.60;;;;;;;15.80;64.96;101131.91;827912;23;1128;-73
2022/10/30 02:02:55;;;;;;;14.07;10.55;;;;;;;15.80;64.85;101129.25;824016;24;1238;-72
2022/10/30 02:03:17;;;;;;;13.60;10.52;;;;;;;15.74;64.81;101121.31;823982;24;1784;-73
2022/10/30 02:03:39;;;;;;;15.02;10.15;;;;;;;15.75;64.98;101123.94;828013;23;1292;-73
2022/10/30 02:04:02;;;;;;;16.20;9.95;;;;;;;15.71;64.72;101131.78;827978;23;982;-73
2022/10/30 02:04:23;;;;;;;15.88;9.90;;;;;;;15.74;64.93;101137.09;825478;24;926;-73
2022/10/30 02:04:45;;;;;;;14.40;10.30;;;;;;;15.69;64.79;101128.25;825660;24;795;-72
2022/10/30 02:05:08;;;;;;;15.05;10.30;;;;;;;15.69;65.10;101133.53;823889;24;1054;-73
2022/10/30 02:05:37;;;;;;;14.82;10.57;;;;;;;15.68;65.00;101124.72;831891;23;851;-74
2022/10/30 02:05:58;;;;;;;14.73;11.07;;;;;;;15.61;65.00;101117.66;827872;23;1217;-73
2022/10/30 02:06:19;;;;;;;16.77;10.63;;;;;;;15.66;64.93;101115.09;829249;23;1018;-73